sensor_id;sensor_type;location;lat;lon;timestamp;pressure;altitude;pressure_sealevel;temperature;humidity
6938;BME280;40040;42.706;23.372;2023-12-20T00:01:16;144163.19;;;-0.13;100.00
6938;BME280;40040;42.706;23.372;2023-12-20T00:03:42;144121.59;;;-0.30;100.00
6938;BME280;40040;42.706;23.372;2023-12-20T00:06:10;144062.91;;;-0.54;100.00
6938;BME280;40040;42.706;23.372;2023-12-20T00:08:37;144102.03;;;-0.38;100.00
6938;BME280;40040;42.706;23.372;2023-12-20T00:11:04;144047.03;;;-0.60;100.00
6938;BME280;40040;42.706;23.372;2023-12-20T00:13:31;144047.03;;;-0.60;100.00
6938;BME280;40040;42.706;23.372;2023-12-20T00:15:59;144065.38;;;-0.53;100.00
6938;BME280;40040;42.706;23.372;2023-12-20T00:18:26;144048.28;;;-0.60;100.00
6938;BME280;40040;42.706;23.372;2023-12-20T00:20:53;144018.94;;;-0.72;100.00
6938;BME280;40040;42.706;23.372;2023-12-20T00:23:19;144040.94;;;-0.63;100.00
6938;BME280;40040;42.706;23.372;2023-12-20T00:25:48;144027.50;;;-0.68;100.00
6938;BME280;40040;42.706;23.372;2023-12-20T00:28:15;144015.28;;;-0.73;100.00
6938;BME280;40040;42.706;23.372;2023-12-20T00:30:42;143918.72;;;-1.13;100.00
6938;BME280;40040;42.706;23.372;2023-12-20T00:33:10;144018.94;;;-0.72;100.00
6938;BME280;40040;42.706;23.372;2023-12-20T00:35:37;144027.50;;;-0.68;100.00
6938;BME280;40040;42.706;23.372;2023-12-20T00:38:04;144012.81;;;-0.74;100.00
6938;BME280;40040;42.706;23.372;2023-12-20T00:40:32;144021.38;;;-0.71;100.00
6938;BME280;40040;42.706;23.372;2023-12-20T00:42:59;143987.16;;;-0.85;100.00
6938;BME280;40040;42.706;23.372;2023-12-20T00:45:26;144027.50;;;-0.68;100.00
6938;BME280;40040;42.706;23.372;2023-12-20T00:47:53;144039.72;;;-0.63;100.00
6938;BME280;40040;42.706;23.372;2023-12-20T00:50:21;144029.94;;;-0.67;100.00
6938;BME280;40040;42.706;23.372;2023-12-20T00:52:48;144011.56;;;-0.75;100.00
6938;BME280;40040;42.706;23.372;2023-12-20T00:55:15;143984.72;;;-0.86;100.00
6938;BME280;40040;42.706;23.372;2023-12-20T00:57:41;144012.81;;;-0.74;100.00
6938;BME280;40040;42.706;23.372;2023-12-20T01:00:09;143941.97;;;-1.03;100.00
6938;BME280;40040;42.706;23.372;2023-12-20T01:02:36;144048.28;;;-0.60;100.00
6938;BME280;40040;42.706;23.372;2023-12-20T01:05:04;144048.28;;;-0.60;100.00
6938;BME280;40040;42.706;23.372;2023-12-20T01:07:32;144048.28;;;-0.60;100.00
6938;BME280;40040;42.706;23.372;2023-12-20T01:09:59;144017.72;;;-0.72;100.00
6938;BME280;40040;42.706;23.372;2023-12-20T01:12:26;144021.38;;;-0.71;100.00
6938;BME280;40040;42.706;23.372;2023-12-20T01:14:53;144012.81;;;-0.74;100.00
6938;BME280;40040;42.706;23.372;2023-12-20T01:17:20;144004.25;;;-0.78;100.00
6938;BME280;40040;42.706;23.372;2023-12-20T01:19:47;144032.41;;;-0.66;100.00
6938;BME280;40040;42.706;23.372;2023-12-20T01:22:13;144075.13;;;-0.49;100.00
6938;BME280;40040;42.706;23.372;2023-12-20T01:24:41;144084.94;;;-0.45;100.00
6938;BME280;40040;42.706;23.372;2023-12-20T01:27:09;144084.94;;;-0.45;100.00
6938;BME280;40040;42.706;23.372;2023-12-20T01:29:35;144078.84;;;-0.47;100.00
6938;BME280;40040;42.706;23.372;2023-12-20T01:32:03;144058.00;;;-0.56;100.00
6938;BME280;40040;42.706;23.372;2023-12-20T01:34:29;144053.16;;;-0.58;100.00
6938;BME280;40040;42.706;23.372;2023-12-20T01:36:56;144007.91;;;-0.76;100.00
6938;BME280;40040;42.706;23.372;2023-12-20T01:39:23;144045.81;;;-0.61;100.00
6938;BME280;40040;42.706;23.372;2023-12-20T01:41:52;144004.25;;;-0.78;100.00
6938;BME280;40040;42.706;23.372;2023-12-20T01:44:18;143955.41;;;-0.98;100.00
6938;BME280;40040;42.706;23.372;2023-12-20T01:46:46;144000.59;;;-0.79;100.00
6938;BME280;40040;42.706;23.372;2023-12-20T01:49:13;143973.69;;;-0.90;100.00
6938;BME280;40040;42.706;23.372;2023-12-20T01:51:41;144016.47;;;-0.73;100.00
6938;BME280;40040;42.706;23.372;2023-12-20T01:54:08;143965.16;;;-0.94;100.00
6938;BME280;40040;42.706;23.372;2023-12-20T01:56:35;143974.94;;;-0.90;100.00
6938;BME280;40040;42.706;23.372;2023-12-20T01:59:03;143985.91;;;-0.85;100.00
6938;BME280;40040;42.706;23.372;2023-12-20T02:01:31;143989.63;;;-0.84;100.00
6938;BME280;40040;42.706;23.372;2023-12-20T02:03:58;143854.03;;;-1.40;100.00
6938;BME280;40040;42.706;23.372;2023-12-20T02:06:29;143982.25;;;-0.87;100.00
6938;BME280;40040;42.706;23.372;2023-12-20T02:08:57;144009.16;;;-0.76;100.00
6938;BME280;40040;42.706;23.372;2023-12-20T02:11:24;143981.06;;;-0.87;100.00
6938;BME280;40040;42.706;23.372;2023-12-20T02:13:51;143965.16;;;-0.94;100.00
6938;BME280;40040;42.706;23.372;2023-12-20T02:16:20;143977.34;;;-0.89;100.00
6938;BME280;40040;42.706;23.372;2023-12-20T02:18:47;143957.84;;;-0.97;100.00
6938;BME280;40040;42.706;23.372;2023-12-20T02:21:14;143960.31;;;-0.96;100.00
6938;BME280;40040;42.706;23.372;2023-12-20T02:23:43;143940.72;;;-1.04;100.00
6938;BME280;40040;42.706;23.372;2023-12-20T02:26:10;143971.28;;;-0.91;100.00
6938;BME280;40040;42.706;23.372;2023-12-20T02:28:37;143940.72;;;-1.04;100.00
6938;BME280;40040;42.706;23.372;2023-12-20T02:31:04;143952.94;;;-0.99;100.00
6938;BME280;40040;42.706;23.372;2023-12-20T02:33:31;143911.41;;;-1.16;100.00
6938;BME280;40040;42.706;23.372;2023-12-20T02:35:57;143905.28;;;-1.19;100.00
6938;BME280;40040;42.706;23.372;2023-12-20T02:38:24;143908.97;;;-1.17;100.00
6938;BME280;40040;42.706;23.372;2023-12-20T02:40:52;143921.19;;;-1.12;100.00
6938;BME280;40040;42.706;23.372;2023-12-20T02:43:19;143902.84;;;-1.20;100.00
6938;BME280;40040;42.706;23.372;2023-12-20T02:45:46;143893.06;;;-1.24;100.00
6938;BME280;40040;42.706;23.372;2023-12-20T02:48:13;143891.88;;;-1.24;100.00
6938;BME280;40040;42.706;23.372;2023-12-20T02:50:39;143869.88;;;-1.33;100.00
6938;BME280;40040;42.706;23.372;2023-12-20T02:53:06;143783.16;;;-1.69;100.00
6938;BME280;40040;42.706;23.372;2023-12-20T02:55:33;143855.22;;;-1.39;100.00
6938;BME280;40040;42.706;23.372;2023-12-20T02:58:01;143827.13;;;-1.51;100.00
6938;BME280;40040;42.706;23.372;2023-12-20T03:00:28;143828.38;;;-1.50;100.00
6938;BME280;40040;42.706;23.372;2023-12-20T03:02:55;143835.69;;;-1.47;100.00
6938;BME280;40040;42.706;23.372;2023-12-20T03:05:21;143847.91;;;-1.42;100.00
6938;BME280;40040;42.706;23.372;2023-12-20T03:07:48;143852.78;;;-1.40;100.00
6938;BME280;40040;42.706;23.372;2023-12-20T03:10:15;143911.41;;;-1.16;100.00
6938;BME280;40040;42.706;23.372;2023-12-20T03:12:42;143944.38;;;-1.02;100.00
6938;BME280;40040;42.706;23.372;2023-12-20T03:15:10;143921.19;;;-1.12;100.00
6938;BME280;40040;42.706;23.372;2023-12-20T03:17:37;143967.63;;;-0.93;100.00
6938;BME280;40040;42.706;23.372;2023-12-20T03:20:05;143954.16;;;-0.98;100.00
6938;BME280;40040;42.706;23.372;2023-12-20T03:22:32;144004.25;;;-0.78;100.00
6938;BME280;40040;42.706;23.372;2023-12-20T03:24:59;144023.84;;;-0.70;100.00
6938;BME280;40040;42.706;23.372;2023-12-20T03:27:26;144016.47;;;-0.73;100.00
6938;BME280;40040;42.706;23.372;2023-12-20T03:29:52;144025.03;;;-0.69;100.00
6938;BME280;40040;42.706;23.372;2023-12-20T03:32:21;144045.81;;;-0.61;100.00
6938;BME280;40040;42.706;23.372;2023-12-20T03:34:47;144070.28;;;-0.51;100.00
6938;BME280;40040;42.706;23.372;2023-12-20T03:37:14;144055.59;;;-0.57;100.00
6938;BME280;40040;42.706;23.372;2023-12-20T03:39:41;144072.72;;;-0.50;100.00
6938;BME280;40040;42.706;23.372;2023-12-20T03:42:08;144081.25;;;-0.46;100.00
6938;BME280;40040;42.706;23.372;2023-12-20T03:44:38;144077.59;;;-0.48;100.00
6938;BME280;40040;42.706;23.372;2023-12-20T03:47:05;144067.81;;;-0.52;100.00
6938;BME280;40040;42.706;23.372;2023-12-20T03:49:33;144075.13;;;-0.49;100.00
6938;BME280;40040;42.706;23.372;2023-12-20T03:52:02;144048.28;;;-0.60;100.00
6938;BME280;40040;42.706;23.372;2023-12-20T03:54:29;144066.56;;;-0.52;100.00
6938;BME280;40040;42.706;23.372;2023-12-20T03:56:56;144065.38;;;-0.53;100.00
6938;BME280;40040;42.706;23.372;2023-12-20T03:59:23;144043.38;;;-0.62;100.00
6938;BME280;40040;42.706;23.372;2023-12-20T04:01:50;143988.38;;;-0.84;100.00
6938;BME280;40040;42.706;23.372;2023-12-20T04:04:17;143989.63;;;-0.84;100.00
6938;BME280;40040;42.706;23.372;2023-12-20T04:06:45;143990.81;;;-0.83;100.00
6938;BME280;40040;42.706;23.372;2023-12-20T04:09:12;143987.16;;;-0.85;100.00
6938;BME280;40040;42.706;23.372;2023-12-20T04:11:39;143989.63;;;-0.84;100.00
6938;BME280;40040;42.706;23.372;2023-12-20T04:14:06;143987.16;;;-0.85;100.00
6938;BME280;40040;42.706;23.372;2023-12-20T04:16:33;143962.72;;;-0.95;100.00
6938;BME280;40040;42.706;23.372;2023-12-20T04:18:59;143950.50;;;-1.00;100.00
6938;BME280;40040;42.706;23.372;2023-12-20T04:21:26;143939.50;;;-1.04;100.00
6938;BME280;40040;42.706;23.372;2023-12-20T04:23:54;143890.66;;;-1.25;100.00
6938;BME280;40040;42.706;23.372;2023-12-20T04:26:21;143899.19;;;-1.21;100.00
6938;BME280;40040;42.706;23.372;2023-12-20T04:28:48;143878.44;;;-1.30;100.00
6938;BME280;40040;42.706;23.372;2023-12-20T04:31:15;143845.47;;;-1.43;100.00
6938;BME280;40040;42.706;23.372;2023-12-20T04:33:42;143855.22;;;-1.39;100.00
6938;BME280;40040;42.706;23.372;2023-12-20T04:36:08;143844.22;;;-1.44;100.00
6938;BME280;40040;42.706;23.372;2023-12-20T04:38:35;143812.47;;;-1.57;100.00
6938;BME280;40040;42.706;23.372;2023-12-20T04:41:04;143823.47;;;-1.52;100.00
6938;BME280;40040;42.706;23.372;2023-12-20T04:43:31;143785.63;;;-1.68;100.00
6938;BME280;40040;42.706;23.372;2023-12-20T04:45:57;143827.13;;;-1.51;100.00
6938;BME280;40040;42.706;23.372;2023-12-20T04:48:24;143781.97;;;-1.69;100.00
6938;BME280;40040;42.706;23.372;2023-12-20T04:50:51;143686.72;;;-2.08;100.00
6938;BME280;40040;42.706;23.372;2023-12-20T04:53:18;143799.06;;;-1.62;100.00
6938;BME280;40040;42.706;23.372;2023-12-20T04:55:45;143800.25;;;-1.62;100.00
6938;BME280;40040;42.706;23.372;2023-12-20T04:58:13;143738.00;;;-1.87;100.00
6938;BME280;40040;42.706;23.372;2023-12-20T05:00:40;143768.53;;;-1.75;100.00
6938;BME280;40040;42.706;23.372;2023-12-20T05:03:06;143784.41;;;-1.68;100.00
6938;BME280;40040;42.706;23.372;2023-12-20T05:05:34;143799.06;;;-1.62;100.00
6938;BME280;40040;42.706;23.372;2023-12-20T05:08:01;143814.94;;;-1.56;100.00
6938;BME280;40040;42.706;23.372;2023-12-20T05:10:28;143839.34;;;-1.46;100.00
6938;BME280;40040;42.706;23.372;2023-12-20T05:12:55;143860.09;;;-1.37;100.00
6938;BME280;40040;42.706;23.372;2023-12-20T05:15:23;143851.56;;;-1.41;100.00
6938;BME280;40040;42.706;23.372;2023-12-20T05:17:50;143852.78;;;-1.40;100.00
6938;BME280;40040;42.706;23.372;2023-12-20T05:20:17;143851.56;;;-1.41;100.00
6938;BME280;40040;42.706;23.372;2023-12-20T05:22:44;143816.16;;;-1.55;100.00
6938;BME280;40040;42.706;23.372;2023-12-20T05:25:11;143816.16;;;-1.55;100.00
6938;BME280;40040;42.706;23.372;2023-12-20T05:27:38;143822.25;;;-1.53;100.00
6938;BME280;40040;42.706;23.372;2023-12-20T05:30:06;143784.41;;;-1.68;100.00
6938;BME280;40040;42.706;23.372;2023-12-20T05:32:34;143840.56;;;-1.45;100.00
6938;BME280;40040;42.706;23.372;2023-12-20T05:35:01;143835.69;;;-1.47;100.00
6938;BME280;40040;42.706;23.372;2023-12-20T05:37:28;143829.56;;;-1.50;100.00
6938;BME280;40040;42.706;23.372;2023-12-20T05:39:55;143830.78;;;-1.49;100.00
6938;BME280;40040;42.706;23.372;2023-12-20T05:42:22;143852.78;;;-1.40;100.00
6938;BME280;40040;42.706;23.372;2023-12-20T05:44:49;143843.00;;;-1.44;100.00
6938;BME280;40040;42.706;23.372;2023-12-20T05:47:15;143840.56;;;-1.45;100.00
6938;BME280;40040;42.706;23.372;2023-12-20T05:49:45;143847.91;;;-1.42;100.00
6938;BME280;40040;42.706;23.372;2023-12-20T05:52:12;143840.56;;;-1.45;100.00
6938;BME280;40040;42.706;23.372;2023-12-20T05:54:39;143867.41;;;-1.34;100.00
6938;BME280;40040;42.706;23.372;2023-12-20T05:57:06;143882.09;;;-1.28;100.00
6938;BME280;40040;42.706;23.372;2023-12-20T05:59:32;143938.28;;;-1.05;100.00
6938;BME280;40040;42.706;23.372;2023-12-20T06:01:59;143957.84;;;-0.97;100.00
6938;BME280;40040;42.706;23.372;2023-12-20T06:04:26;143987.16;;;-0.85;100.00
6938;BME280;40040;42.706;23.372;2023-12-20T06:06:54;144011.56;;;-0.75;100.00
6938;BME280;40040;42.706;23.372;2023-12-20T06:09:21;144017.72;;;-0.72;100.00
6938;BME280;40040;42.706;23.372;2023-12-20T06:11:48;144033.59;;;-0.66;100.00
6938;BME280;40040;42.706;23.372;2023-12-20T06:14:15;144001.84;;;-0.79;100.00
6938;BME280;40040;42.706;23.372;2023-12-20T06:16:41;144055.59;;;-0.57;100.00
6938;BME280;40040;42.706;23.372;2023-12-20T06:19:08;144033.59;;;-0.66;100.00
6938;BME280;40040;42.706;23.372;2023-12-20T06:21:35;144021.38;;;-0.71;100.00
6938;BME280;40040;42.706;23.372;2023-12-20T06:24:04;144067.81;;;-0.52;100.00
6938;BME280;40040;42.706;23.372;2023-12-20T06:26:31;143999.38;;;-0.80;100.00
6938;BME280;40040;42.706;23.372;2023-12-20T06:28:58;144080.03;;;-0.47;100.00
6938;BME280;40040;42.706;23.372;2023-12-20T06:31:25;144073.94;;;-0.49;100.00
6938;BME280;40040;42.706;23.372;2023-12-20T06:33:52;144054.34;;;-0.57;100.00
6938;BME280;40040;42.706;23.372;2023-12-20T06:36:23;144061.72;;;-0.54;100.00
6938;BME280;40040;42.706;23.372;2023-12-20T06:38:49;144084.94;;;-0.45;100.00
6938;BME280;40040;42.706;23.372;2023-12-20T06:41:18;144091.06;;;-0.42;100.00
6938;BME280;40040;42.706;23.372;2023-12-20T06:43:45;144111.84;;;-0.34;100.00
6938;BME280;40040;42.706;23.372;2023-12-20T06:46:12;144115.50;;;-0.32;100.00
6938;BME280;40040;42.706;23.372;2023-12-20T06:48:39;144087.41;;;-0.44;100.00
6938;BME280;40040;42.706;23.372;2023-12-20T06:51:06;144105.69;;;-0.36;100.00
6938;BME280;40040;42.706;23.372;2023-12-20T06:53:33;144139.94;;;-0.22;100.00
6938;BME280;40040;42.706;23.372;2023-12-20T06:56:00;144144.84;;;-0.20;100.00
6938;BME280;40040;42.706;23.372;2023-12-20T06:58:28;144130.13;;;-0.26;100.00
6938;BME280;40040;42.706;23.372;2023-12-20T07:00:55;144165.63;;;-0.12;100.00
6938;BME280;40040;42.706;23.372;2023-12-20T07:03:22;144132.63;;;-0.25;100.00
6938;BME280;40040;42.706;23.372;2023-12-20T07:05:48;144120.38;;;-0.30;100.00
6938;BME280;40040;42.706;23.372;2023-12-20T07:08:15;144114.25;;;-0.33;100.00
6938;BME280;40040;42.706;23.372;2023-12-20T07:10:42;144078.84;;;-0.47;100.00
6938;BME280;40040;42.706;23.372;2023-12-20T07:13:09;144091.06;;;-0.42;100.00
6938;BME280;40040;42.706;23.372;2023-12-20T07:15:37;144084.94;;;-0.45;100.00
6938;BME280;40040;42.706;23.372;2023-12-20T07:18:04;144084.94;;;-0.45;100.00
6938;BME280;40040;42.706;23.372;2023-12-20T07:20:32;144077.59;;;-0.48;100.00
6938;BME280;40040;42.706;23.372;2023-12-20T07:22:59;144032.41;;;-0.66;100.00
6938;BME280;40040;42.706;23.372;2023-12-20T07:25:26;144077.59;;;-0.48;100.00
6938;BME280;40040;42.706;23.372;2023-12-20T07:27:53;144116.72;;;-0.32;100.00
6938;BME280;40040;42.706;23.372;2023-12-20T07:30:20;144121.59;;;-0.30;100.00
6938;BME280;40040;42.706;23.372;2023-12-20T07:32:49;144160.72;;;-0.14;100.00
6938;BME280;40040;42.706;23.372;2023-12-20T07:35:16;144142.41;;;-0.21;100.00
6938;BME280;40040;42.706;23.372;2023-12-20T07:37:42;144186.41;;;-0.03;100.00
6938;BME280;40040;42.706;23.372;2023-12-20T07:40:10;144224.31;;;0.13;100.00
6938;BME280;40040;42.706;23.372;2023-12-20T07:42:37;144231.69;;;0.16;100.00
6938;BME280;40040;42.706;23.372;2023-12-20T07:45:04;144232.88;;;0.16;100.00
6938;BME280;40040;42.706;23.372;2023-12-20T07:47:31;144216.97;;;0.10;100.00
6938;BME280;40040;42.706;23.372;2023-12-20T07:49:59;144216.97;;;0.10;100.00
6938;BME280;40040;42.706;23.372;2023-12-20T07:52:26;144252.47;;;0.24;100.00
6938;BME280;40040;42.706;23.372;2023-12-20T07:54:53;144280.59;;;0.36;100.00
6938;BME280;40040;42.706;23.372;2023-12-20T07:57:19;144296.47;;;0.42;100.00
6938;BME280;40040;42.706;23.372;2023-12-20T07:59:46;144331.97;;;0.57;100.00
6938;BME280;40040;42.706;23.372;2023-12-20T08:02:13;144311.16;;;0.48;100.00
6938;BME280;40040;42.706;23.372;2023-12-20T08:04:40;144333.19;;;0.57;100.00
6938;BME280;40040;42.706;23.372;2023-12-20T08:07:08;144287.91;;;0.39;100.00
6938;BME280;40040;42.706;23.372;2023-12-20T08:09:35;144334.38;;;0.58;100.00
6938;BME280;40040;42.706;23.372;2023-12-20T08:12:02;144354.00;;;0.66;100.00
6938;BME280;40040;42.706;23.372;2023-12-20T08:14:29;144212.06;;;0.08;100.00
6938;BME280;40040;42.706;23.372;2023-12-20T08:16:56;144302.59;;;0.45;100.00
6938;BME280;40040;42.706;23.372;2023-12-20T08:19:23;144330.72;;;0.56;100.00
6938;BME280;40040;42.706;23.372;2023-12-20T08:21:50;144319.72;;;0.52;100.00
6938;BME280;40040;42.706;23.372;2023-12-20T08:24:18;144322.16;;;0.53;100.00
6938;BME280;40040;42.706;23.372;2023-12-20T08:26:45;144373.56;;;0.74;100.00
6938;BME280;40040;42.706;23.372;2023-12-20T08:29:12;144394.34;;;0.82;100.00
6938;BME280;40040;42.706;23.372;2023-12-20T08:31:39;144379.69;;;0.76;100.00
6938;BME280;40040;42.706;23.372;2023-12-20T08:34:06;144433.53;;;0.98;100.00
6938;BME280;40040;42.706;23.372;2023-12-20T08:36:33;144476.38;;;1.16;100.00
6938;BME280;40040;42.706;23.372;2023-12-20T08:39:00;144505.75;;;1.28;100.00
6938;BME280;40040;42.706;23.372;2023-12-20T08:41:30;144478.81;;;1.17;100.00
6938;BME280;40040;42.706;23.372;2023-12-20T08:43:57;144498.41;;;1.25;100.00
6938;BME280;40040;42.706;23.372;2023-12-20T08:46:24;144503.31;;;1.27;100.00
6938;BME280;40040;42.706;23.372;2023-12-20T08:48:51;144491.03;;;1.22;100.00
6938;BME280;40040;42.706;23.372;2023-12-20T08:51:17;144486.19;;;1.20;100.00
6938;BME280;40040;42.706;23.372;2023-12-20T08:53:44;144500.84;;;1.26;100.00
6938;BME280;40040;42.706;23.372;2023-12-20T08:56:13;144483.72;;;1.19;100.00
6938;BME280;40040;42.706;23.372;2023-12-20T08:58:41;144462.91;;;1.10;100.00
6938;BME280;40040;42.706;23.372;2023-12-20T09:01:09;144459.22;;;1.09;100.00
6938;BME280;40040;42.706;23.372;2023-12-20T09:03:36;144484.94;;;1.20;100.00
6938;BME280;40040;42.706;23.372;2023-12-20T09:06:03;144484.94;;;1.20;100.00
6938;BME280;40040;42.706;23.372;2023-12-20T09:08:30;144503.31;;;1.27;100.00
6938;BME280;40040;42.706;23.372;2023-12-20T09:10:57;144527.78;;;1.37;100.00
6938;BME280;40040;42.706;23.372;2023-12-20T09:13:24;144525.31;;;1.36;100.00
6938;BME280;40040;42.706;23.372;2023-12-20T09:15:55;144451.91;;;1.06;100.00
6938;BME280;40040;42.706;23.372;2023-12-20T09:18:22;144510.66;;;1.30;100.00
6938;BME280;40040;42.706;23.372;2023-12-20T09:20:48;144477.63;;;1.17;100.00
6938;BME280;40040;42.706;23.372;2023-12-20T09:23:15;144516.75;;;1.33;100.00
6938;BME280;40040;42.706;23.372;2023-12-20T09:25:43;144481.28;;;1.18;100.00
6938;BME280;40040;42.706;23.372;2023-12-20T09:28:10;144552.28;;;1.47;100.00
6938;BME280;40040;42.706;23.372;2023-12-20T09:30:37;144558.41;;;1.50;100.00
6938;BME280;40040;42.706;23.372;2023-12-20T09:33:06;144508.19;;;1.29;100.00
6938;BME280;40040;42.706;23.372;2023-12-20T09:35:33;144508.19;;;1.29;100.00
6938;BME280;40040;42.706;23.372;2023-12-20T09:38:00;144559.59;;;1.50;100.00
6938;BME280;40040;42.706;23.372;2023-12-20T09:40:27;144566.97;;;1.53;100.00
6938;BME280;40040;42.706;23.372;2023-12-20T09:42:57;144432.28;;;0.98;100.00
6938;BME280;40040;42.706;23.372;2023-12-20T09:45:24;144538.78;;;1.42;100.00
6938;BME280;40040;42.706;23.372;2023-12-20T09:47:53;144558.41;;;1.50;100.00
6938;BME280;40040;42.706;23.372;2023-12-20T09:50:22;144571.84;;;1.55;100.00
6938;BME280;40040;42.706;23.372;2023-12-20T09:52:50;144500.84;;;1.26;100.00
6938;BME280;40040;42.706;23.372;2023-12-20T09:55:18;144546.19;;;1.45;100.00
6938;BME280;40040;42.706;23.372;2023-12-20T09:57:45;144537.59;;;1.41;100.00
6938;BME280;40040;42.706;23.372;2023-12-20T10:00:15;144562.09;;;1.51;100.00
6938;BME280;40040;42.706;23.372;2023-12-20T10:02:48;144582.91;;;1.60;100.00
6938;BME280;40040;42.706;23.372;2023-12-20T10:05:17;144566.97;;;1.53;100.00
6938;BME280;40040;42.706;23.372;2023-12-20T10:07:47;144562.09;;;1.51;100.00
6938;BME280;40040;42.706;23.372;2023-12-20T10:10:13;144586.56;;;1.61;100.00
6938;BME280;40040;42.706;23.372;2023-12-20T10:13:01;144628.19;;;1.78;100.00
6938;BME280;40040;42.706;23.372;2023-12-20T10:15:28;144638.00;;;1.82;100.00
6938;BME280;40040;42.706;23.372;2023-12-20T10:17:56;144619.63;;;1.75;100.00
6938;BME280;40040;42.706;23.372;2023-12-20T10:20:23;144649.00;;;1.87;100.00
6938;BME280;40040;42.706;23.372;2023-12-20T10:22:51;144668.63;;;1.95;100.00
6938;BME280;40040;42.706;23.372;2023-12-20T10:25:19;144617.19;;;1.74;100.00
6938;BME280;40040;42.706;23.372;2023-12-20T10:27:46;144609.84;;;1.71;100.00
6938;BME280;40040;42.706;23.372;2023-12-20T10:30:13;144624.53;;;1.77;100.00
6938;BME280;40040;42.706;23.372;2023-12-20T10:32:40;144649.00;;;1.87;100.00
6938;BME280;40040;42.706;23.372;2023-12-20T10:35:08;144723.75;;;2.17;100.00
6938;BME280;40040;42.706;23.372;2023-12-20T10:37:35;144755.59;;;2.30;100.00
6938;BME280;40040;42.706;23.372;2023-12-20T10:40:05;144758.06;;;2.32;100.00
6938;BME280;40040;42.706;23.372;2023-12-20T10:42:32;144769.09;;;2.36;100.00
6938;BME280;40040;42.706;23.372;2023-12-20T10:45:00;144751.94;;;2.29;100.00
6938;BME280;40040;42.706;23.372;2023-12-20T10:47:28;144815.66;;;2.55;100.00
6938;BME280;40040;42.706;23.372;2023-12-20T10:49:59;144831.56;;;2.62;100.00
6938;BME280;40040;42.706;23.372;2023-12-20T10:52:27;144814.41;;;2.55;100.00
6938;BME280;40040;42.706;23.372;2023-12-20T10:54:56;144810.75;;;2.53;100.00
6938;BME280;40040;42.706;23.372;2023-12-20T10:57:25;144810.75;;;2.53;100.00
6938;BME280;40040;42.706;23.372;2023-12-20T10:59:54;144772.75;;;2.38;100.00
6938;BME280;40040;42.706;23.372;2023-12-20T11:02:22;144759.25;;;2.32;100.00
6938;BME280;40040;42.706;23.372;2023-12-20T11:04:55;144761.75;;;2.33;100.00
6938;BME280;40040;42.706;23.372;2023-12-20T11:07:33;144774.00;;;2.38;100.00
6938;BME280;40040;42.706;23.372;2023-12-20T11:10:10;144787.47;;;2.44;100.00
6938;BME280;40040;42.706;23.372;2023-12-20T11:12:48;144780.13;;;2.41;100.00
6938;BME280;40040;42.706;23.372;2023-12-20T11:15:16;144821.81;;;2.58;100.00
6938;BME280;40040;42.706;23.372;2023-12-20T11:17:44;144802.16;;;2.50;100.00
6938;BME280;40040;42.706;23.372;2023-12-20T11:20:11;144912.47;;;2.95;100.00
6938;BME280;40040;42.706;23.372;2023-12-20T11:22:40;144901.47;;;2.90;100.00
6938;BME280;40040;42.706;23.372;2023-12-20T11:25:18;144949.28;;;3.10;100.00
6938;BME280;40040;42.706;23.372;2023-12-20T11:28:07;144956.63;;;3.13;100.00
6938;BME280;40040;42.706;23.372;2023-12-20T11:30:41;145064.56;;;3.57;100.00
6938;BME280;40040;42.706;23.372;2023-12-20T11:33:07;145097.69;;;3.71;100.00
6938;BME280;40040;42.706;23.372;2023-12-20T11:35:35;145111.19;;;3.76;100.00
6938;BME280;40040;42.706;23.372;2023-12-20T11:38:02;145242.50;;;4.30;100.00
6938;BME280;40040;42.706;23.372;2023-12-20T11:40:33;145343.13;;;4.71;100.00
6938;BME280;40040;42.706;23.372;2023-12-20T11:43:03;145430.34;;;5.07;100.00
6938;BME280;40040;42.706;23.372;2023-12-20T11:45:30;145442.63;;;5.12;100.00
6938;BME280;40040;42.706;23.372;2023-12-20T11:47:58;145449.97;;;5.15;100.00
6938;BME280;40040;42.706;23.372;2023-12-20T11:50:25;145440.19;;;5.11;100.00
6938;BME280;40040;42.706;23.372;2023-12-20T11:52:53;145322.28;;;4.63;100.00
6938;BME280;40040;42.706;23.372;2023-12-20T11:55:21;145214.28;;;4.18;100.00
6938;BME280;40040;42.706;23.372;2023-12-20T11:57:49;145132.03;;;3.85;100.00
6938;BME280;40040;42.706;23.372;2023-12-20T12:00:18;145040.00;;;3.47;100.00
6938;BME280;40040;42.706;23.372;2023-12-20T12:02:55;145132.03;;;3.85;100.00
6938;BME280;40040;42.706;23.372;2023-12-20T12:05:22;145022.84;;;3.40;100.00
6938;BME280;40040;42.706;23.372;2023-12-20T12:07:49;145011.81;;;3.35;100.00
6938;BME280;40040;42.706;23.372;2023-12-20T12:10:16;144993.41;;;3.28;100.00
6938;BME280;40040;42.706;23.372;2023-12-20T12:12:43;144929.63;;;3.02;100.00
6938;BME280;40040;42.706;23.372;2023-12-20T12:15:10;144853.66;;;2.71;100.00
6938;BME280;40040;42.706;23.372;2023-12-20T12:17:38;144851.22;;;2.70;100.00
6938;BME280;40040;42.706;23.372;2023-12-20T12:20:06;144835.28;;;2.63;100.00
6938;BME280;40040;42.706;23.372;2023-12-20T12:22:34;144816.88;;;2.56;100.00
6938;BME280;40040;42.706;23.372;2023-12-20T12:25:10;144838.97;;;2.65;100.00
6938;BME280;40040;42.706;23.372;2023-12-20T12:27:40;144824.22;;;2.59;100.00
6938;BME280;40040;42.706;23.372;2023-12-20T12:30:07;144760.50;;;2.33;100.00
6938;BME280;40040;42.706;23.372;2023-12-20T12:32:35;144767.84;;;2.36;100.00
6938;BME280;40040;42.706;23.372;2023-12-20T12:35:04;144745.81;;;2.26;100.00
6938;BME280;40040;42.706;23.372;2023-12-20T12:37:34;144744.59;;;2.26;100.00
6938;BME280;40040;42.706;23.372;2023-12-20T12:40:03;144722.53;;;2.17;100.00
6938;BME280;40040;42.706;23.372;2023-12-20T12:42:30;144736.00;;;2.22;100.00
6938;BME280;40040;42.706;23.372;2023-12-20T12:44:57;144740.91;;;2.24;100.00